createdAt,value
2022-12-17T00:02:15.492Z,26.87
2022-12-17T00:05:00.917Z,25.73
2022-12-17T00:07:46.488Z,28.33
2022-12-17T00:10:31.958Z,28.07
2022-12-17T00:13:17.257Z,29.47
2022-12-17T00:16:09.904Z,35.80
2022-12-17T00:18:53.386Z,34.10
2022-12-17T00:21:41.864Z,35.10
2022-12-17T00:24:27.183Z,35.87
2022-12-17T00:27:24.108Z,35.77
2022-12-17T00:30:09.472Z,36.47
2022-12-17T00:32:55.132Z,36.40
2022-12-17T00:35:42.041Z,37.23
2022-12-17T00:38:33.687Z,32.27
2022-12-17T00:41:19.033Z,34.40
2022-12-17T00:44:04.533Z,35.97
2022-12-17T00:46:49.972Z,34.10
2022-12-17T00:49:35.496Z,34.90
2022-12-17T00:52:22.319Z,32.07
2022-12-17T00:55:07.724Z,33.27
2022-12-17T00:57:53.168Z,31.17
2022-12-17T01:00:39.158Z,28.00
2022-12-17T01:03:27.550Z,25.80
2022-12-17T01:06:13.169Z,25.83
2022-12-17T01:08:59.973Z,26.80
2022-12-17T01:11:45.555Z,26.73
2022-12-17T01:14:30.944Z,27.43
2022-12-17T01:17:16.332Z,26.97
2022-12-17T01:20:10.116Z,28.97
2022-12-17T01:22:56.467Z,30.73
2022-12-17T01:25:43.558Z,33.37
2022-12-17T01:28:29.331Z,35.47
2022-12-17T01:31:34.736Z,33.87
2022-12-17T01:34:20.977Z,37.97
2022-12-17T01:37:06.480Z,39.47
2022-12-17T01:39:51.756Z,41.80
2022-12-17T01:42:38.497Z,36.63
2022-12-17T01:45:29.228Z,35.20
2022-12-17T01:48:17.915Z,38.83
2022-12-17T01:51:07.787Z,34.33
2022-12-17T01:54:01.401Z,33.60
2022-12-17T01:56:47.494Z,29.80
2022-12-17T01:59:38.664Z,30.33
2022-12-17T02:02:24.871Z,28.90
2022-12-17T02:05:21.805Z,30.37
2022-12-17T02:08:19.454Z,30.47
2022-12-17T02:11:11.414Z,29.43
2022-12-17T02:14:00.808Z,31.83
2022-12-17T02:16:54.521Z,32.70
2022-12-17T02:19:51.191Z,32.50
2022-12-17T02:22:46.151Z,33.83
2022-12-17T02:25:40.301Z,30.90
2022-12-17T02:28:28.430Z,32.90
2022-12-17T02:31:16.308Z,35.33
2022-12-17T02:34:02.283Z,34.60
2022-12-17T02:36:52.738Z,34.13
2022-12-17T02:39:39.676Z,34.23
2022-12-17T02:42:26.499Z,33.30
2022-12-17T02:45:14.831Z,34.10
2022-12-17T02:48:01.901Z,34.10
2022-12-17T02:50:47.718Z,33.63
2022-12-17T02:53:30.465Z,35.30
2022-12-17T02:56:15.993Z,35.77
2022-12-17T02:59:01.415Z,34.17
2022-12-17T03:01:48.528Z,34.10
2022-12-17T03:04:33.984Z,32.20
2022-12-17T03:07:19.417Z,31.27
2022-12-17T03:10:06.210Z,31.93
2022-12-17T03:12:52.851Z,31.60
2022-12-17T03:15:38.280Z,30.53
2022-12-17T03:18:25.409Z,29.87
2022-12-17T03:21:11.802Z,28.30
2022-12-17T03:23:57.814Z,29.40
2022-12-17T03:26:43.390Z,31.37
2022-12-17T03:29:28.886Z,31.43
2022-12-17T03:32:14.319Z,30.10
2022-12-17T03:35:01.055Z,31.93
2022-12-17T03:37:46.330Z,30.47
2022-12-17T03:40:31.871Z,30.33
2022-12-17T03:43:23.465Z,30.47
2022-12-17T03:46:19.326Z,31.00
2022-12-17T03:49:04.969Z,28.37
2022-12-17T03:51:51.671Z,28.97
2022-12-17T03:54:37.095Z,31.87
2022-12-17T03:57:22.812Z,29.83
2022-12-17T04:00:08.198Z,29.63
2022-12-17T04:02:59.611Z,28.70
2022-12-17T04:05:45.012Z,29.27
2022-12-17T04:08:46.140Z,30.03
2022-12-17T04:11:31.603Z,30.57
2022-12-17T04:14:17.171Z,30.80
2022-12-17T04:17:03.103Z,28.57
2022-12-17T04:19:48.650Z,30.17
2022-12-17T04:22:34.076Z,29.93
2022-12-17T04:25:20.972Z,29.53
2022-12-17T04:28:06.288Z,29.10
2022-12-17T04:30:51.040Z,31.43
2022-12-17T04:33:36.768Z,29.00
2022-12-17T04:36:22.801Z,31.57
2022-12-17T04:39:08.547Z,29.13
2022-12-17T04:41:55.228Z,29.73
2022-12-17T04:44:40.649Z,30.17
2022-12-17T04:47:25.905Z,29.43
2022-12-17T04:50:11.391Z,28.33
2022-12-17T04:52:56.876Z,28.50
2022-12-17T04:55:47.674Z,27.57
2022-12-17T04:58:34.658Z,27.90
2022-12-17T05:01:17.899Z,30.37
2022-12-17T05:04:03.376Z,28.60
2022-12-17T05:06:48.846Z,27.80
2022-12-17T05:09:34.293Z,28.67
2022-12-17T05:12:19.683Z,27.50
2022-12-17T05:15:06.498Z,29.97
2022-12-17T05:17:51.841Z,30.33
2022-12-17T05:20:37.349Z,41.03
2022-12-17T05:23:24.288Z,43.70
2022-12-17T05:26:17.820Z,40.37
2022-12-17T05:29:05.520Z,48.53
2022-12-17T05:31:52.476Z,45.10
2022-12-17T05:34:52.438Z,42.10
2022-12-17T05:37:37.693Z,40.80
2022-12-17T05:40:24.667Z,38.80
2022-12-17T05:43:15.373Z,36.87
2022-12-17T05:46:02.321Z,37.07
2022-12-17T05:48:50.070Z,41.67
2022-12-17T05:51:38.938Z,37.63
2022-12-17T05:54:25.787Z,40.87
2022-12-17T05:57:11.271Z,42.23
2022-12-17T05:59:56.788Z,38.97
2022-12-17T06:02:42.644Z,38.97
2022-12-17T06:05:29.959Z,40.00
2022-12-17T06:08:22.215Z,38.77
2022-12-17T06:11:07.723Z,42.17
2022-12-17T06:13:53.190Z,42.63
2022-12-17T06:16:39.061Z,42.70
2022-12-17T06:19:24.561Z,39.77
2022-12-17T06:22:11.344Z,41.20
2022-12-17T06:24:56.924Z,40.10
2022-12-17T06:27:42.520Z,42.20
2022-12-17T06:30:28.870Z,47.20
2022-12-17T06:33:21.605Z,42.37
2022-12-17T06:36:07.233Z,45.13
2022-12-17T06:38:53.949Z,43.90
2022-12-17T06:41:39.293Z,44.07
2022-12-17T06:44:24.810Z,44.47
2022-12-17T06:47:10.279Z,40.83
2022-12-17T06:50:01.115Z,43.27
2022-12-17T06:52:47.046Z,42.33
2022-12-17T06:55:33.855Z,42.57
2022-12-17T06:58:20.055Z,39.00
2022-12-17T07:01:05.919Z,39.83
2022-12-17T07:03:51.409Z,37.40
2022-12-17T07:06:36.954Z,38.87
2022-12-17T07:09:22.799Z,35.87
2022-12-17T07:12:09.602Z,38.23
2022-12-17T07:14:55.079Z,43.63
2022-12-17T07:17:42.283Z,44.73
2022-12-17T07:20:29.102Z,45.67
2022-12-17T07:23:15.182Z,49.20
2022-12-17T07:26:01.189Z,43.43
2022-12-17T07:28:48.172Z,44.50
2022-12-17T07:31:33.636Z,42.77
2022-12-17T07:34:19.052Z,40.97
2022-12-17T07:37:04.497Z,36.70
2022-12-17T07:39:50.054Z,38.47
2022-12-17T07:42:35.739Z,41.53
2022-12-17T07:45:23.412Z,37.13
2022-12-17T07:48:12.469Z,38.93
2022-12-17T07:50:57.803Z,38.90
2022-12-17T07:53:43.318Z,43.40
2022-12-17T07:56:28.672Z,37.93
2022-12-17T07:59:29.200Z,37.87
2022-12-17T08:02:16.528Z,38.50
2022-12-17T08:05:02.299Z,37.20
2022-12-17T08:07:47.781Z,41.07
2022-12-17T08:10:33.710Z,38.47
2022-12-17T08:13:20.849Z,32.67
2022-12-17T08:16:07.252Z,35.73
2022-12-17T08:18:54.136Z,37.37
2022-12-17T08:21:39.926Z,36.47
2022-12-17T08:24:25.676Z,39.77
2022-12-17T08:27:10.976Z,38.17
2022-12-17T08:29:56.752Z,38.17
2022-12-17T08:32:42.916Z,39.17
2022-12-17T08:35:29.646Z,37.00
2022-12-17T08:38:20.568Z,35.37
2022-12-17T08:41:05.970Z,36.37
2022-12-17T08:43:51.446Z,34.37
2022-12-17T08:46:37.319Z,35.30
2022-12-17T08:49:22.866Z,35.03
2022-12-17T08:52:09.971Z,34.77
2022-12-17T08:54:55.854Z,34.33
2022-12-17T08:57:41.205Z,34.40
2022-12-17T09:00:27.959Z,34.83
2022-12-17T09:03:16.209Z,32.63
2022-12-17T09:06:02.095Z,33.90
2022-12-17T09:08:49.229Z,36.20
2022-12-17T09:11:35.297Z,34.87
2022-12-17T09:14:21.858Z,33.67
2022-12-17T09:17:07.258Z,34.27
2022-12-17T09:19:52.959Z,34.37
2022-12-17T09:22:38.436Z,33.27
2022-12-17T09:25:26.656Z,32.47
2022-12-17T09:28:12.199Z,34.17
2022-12-17T09:31:12.122Z,33.80
2022-12-17T09:33:57.644Z,36.40
2022-12-17T09:36:49.543Z,42.47
2022-12-17T09:39:36.731Z,59.60
2022-12-17T09:42:33.014Z,43.30
2022-12-17T09:45:24.899Z,37.03
2022-12-17T09:48:18.596Z,37.43
2022-12-17T09:51:08.716Z,37.83
2022-12-17T09:53:55.940Z,36.40
2022-12-17T09:56:45.466Z,35.97
2022-12-17T09:59:38.522Z,38.57
2022-12-17T10:02:31.594Z,38.80
2022-12-17T10:05:20.987Z,36.33
2022-12-17T10:08:07.572Z,36.90
2022-12-17T10:10:54.364Z,36.57
2022-12-17T10:13:41.700Z,36.53
2022-12-17T10:16:42.581Z,35.63
2022-12-17T10:19:35.553Z,33.83
2022-12-17T10:22:29.101Z,34.83
2022-12-17T10:25:14.598Z,33.90
2022-12-17T10:28:00.481Z,36.03
2022-12-17T10:30:47.673Z,34.50
2022-12-17T10:33:41.157Z,33.20
2022-12-17T10:36:40.517Z,35.90
2022-12-17T10:39:34.308Z,35.77
2022-12-17T10:42:20.893Z,31.80
2022-12-17T10:45:06.373Z,32.00
2022-12-17T10:47:52.793Z,33.53
2022-12-17T10:50:42.208Z,33.13
2022-12-17T10:53:37.624Z,33.00
2022-12-17T10:56:23.320Z,33.33
2022-12-17T10:59:12.129Z,33.40
2022-12-17T11:01:58.878Z,34.27
2022-12-17T11:04:55.642Z,32.77
2022-12-17T11:07:45.499Z,33.60
2022-12-17T11:10:46.120Z,33.80
2022-12-17T11:13:35.891Z,31.83
2022-12-17T11:16:26.149Z,33.63
2022-12-17T11:19:23.670Z,31.57
2022-12-17T11:22:11.068Z,32.83
2022-12-17T11:25:02.447Z,33.50
2022-12-17T11:27:53.890Z,32.30
2022-12-17T11:30:39.812Z,34.13
2022-12-17T11:33:33.886Z,33.63
2022-12-17T11:36:32.484Z,33.87
2022-12-17T11:39:30.231Z,30.93
2022-12-17T11:42:23.404Z,32.17
2022-12-17T11:45:16.614Z,32.07
2022-12-17T11:48:09.407Z,35.23
2022-12-17T11:51:03.395Z,32.70
2022-12-17T11:54:10.106Z,33.40
2022-12-17T11:56:59.634Z,35.87
2022-12-17T11:59:54.279Z,32.93
2022-12-17T12:02:59.917Z,30.37
2022-12-17T12:05:56.986Z,25.67
2022-12-17T12:08:44.600Z,25.13
2022-12-17T12:11:40.613Z,19.73
2022-12-17T12:14:37.484Z,19.80
2022-12-17T12:17:41.639Z,18.83
2022-12-17T12:20:43.358Z,18.63
2022-12-17T12:23:37.264Z,17.40
2022-12-17T12:26:31.193Z,18.23
2022-12-17T12:29:23.543Z,16.40
2022-12-17T12:32:17.988Z,15.83
2022-12-17T12:35:05.155Z,14.30
2022-12-17T12:37:51.587Z,13.73
2022-12-17T12:40:46.156Z,12.20
2022-12-17T12:43:40.041Z,12.83
2022-12-17T12:46:32.050Z,12.57
2022-12-17T12:49:23.382Z,12.57
2022-12-17T12:52:14.271Z,12.50
2022-12-17T12:55:10.864Z,19.03
2022-12-17T12:57:59.457Z,17.87
2022-12-17T13:00:53.839Z,17.67
2022-12-17T13:03:44.625Z,16.27
2022-12-17T13:06:14.250Z,17.00
2022-12-17T13:08:43.697Z,15.43
2022-12-17T13:11:28.232Z,13.63
2022-12-17T13:14:01.191Z,12.03
2022-12-17T13:16:50.649Z,12.67
2022-12-17T13:19:23.045Z,12.03
2022-12-17T13:21:51.318Z,11.93
2022-12-17T13:24:26.952Z,12.53
2022-12-17T13:26:55.199Z,15.30
2022-12-17T13:29:28.262Z,15.07
2022-12-17T13:32:06.447Z,12.97
2022-12-17T13:34:46.419Z,11.70
2022-12-17T13:37:24.204Z,12.43
2022-12-17T13:40:04.618Z,10.90
2022-12-17T13:42:35.615Z,10.07
2022-12-17T13:45:06.537Z,10.83
2022-12-17T13:47:38.280Z,10.47
2022-12-17T13:50:33.934Z,9.87
2022-12-17T13:53:11.275Z,9.07
2022-12-17T13:55:40.941Z,9.40
2022-12-17T13:58:23.282Z,9.63
2022-12-17T14:00:51.413Z,8.23
2022-12-17T14:03:37.121Z,7.20
2022-12-17T14:06:12.303Z,6.20
2022-12-17T14:08:41.475Z,5.50
2022-12-17T14:11:30.225Z,6.30
2022-12-17T14:13:58.729Z,5.10
2022-12-17T14:16:26.938Z,5.00
2022-12-17T14:18:57.223Z,6.30
2022-12-17T14:21:26.896Z,5.40
2022-12-17T14:23:55.469Z,5.60
2022-12-17T14:26:24.870Z,5.20
2022-12-17T14:28:54.693Z,5.10
2022-12-17T14:31:27.554Z,5.73
2022-12-17T14:34:07.378Z,4.93
2022-12-17T14:36:38.682Z,5.90
2022-12-17T14:39:17.095Z,5.30
2022-12-17T14:42:04.275Z,5.67
2022-12-17T14:44:32.815Z,5.93
2022-12-17T14:47:18.681Z,5.10
2022-12-17T14:50:01.961Z,7.60
2022-12-17T14:52:39.899Z,7.57
2022-12-17T14:55:35.535Z,8.10
2022-12-17T14:58:17.713Z,5.43
2022-12-17T15:00:49.902Z,5.00
2022-12-17T15:03:24.799Z,4.27
2022-12-17T15:05:56.885Z,4.53
2022-12-17T15:08:25.172Z,4.70
2022-12-17T15:10:53.220Z,4.53
2022-12-17T15:13:22.878Z,5.70
2022-12-17T15:15:51.109Z,5.60
2022-12-17T15:18:19.265Z,6.37
2022-12-17T15:20:47.332Z,5.50
2022-12-17T15:23:17.466Z,5.07
2022-12-17T15:25:47.236Z,5.90
2022-12-17T15:28:18.392Z,6.23
2022-12-17T15:30:48.904Z,6.33
2022-12-17T15:33:17.077Z,7.37
2022-12-17T15:35:45.794Z,6.97
2022-12-17T15:38:14.105Z,6.40
2022-12-17T15:40:42.244Z,6.37
2022-12-17T15:43:13.581Z,6.60
2022-12-17T15:45:43.235Z,8.07
2022-12-17T15:48:14.291Z,9.13
2022-12-17T15:50:42.662Z,8.10
2022-12-17T15:53:11.255Z,8.50
2022-12-17T15:55:39.749Z,7.60
2022-12-17T15:58:09.036Z,9.13
2022-12-17T16:00:37.191Z,8.13
2022-12-17T16:03:05.434Z,10.03
2022-12-17T16:05:34.891Z,10.07
2022-12-17T16:08:03.328Z,9.43
2022-12-17T16:10:31.679Z,10.23
2022-12-17T16:12:59.788Z,11.23
2022-12-17T16:15:28.059Z,9.57
2022-12-17T16:17:56.193Z,10.70
2022-12-17T16:20:24.536Z,9.50
2022-12-17T16:22:53.916Z,9.17
2022-12-17T16:25:21.915Z,9.53
2022-12-17T16:27:49.916Z,9.00
2022-12-17T16:30:18.004Z,8.87
2022-12-17T16:32:46.032Z,8.07
2022-12-17T16:35:14.156Z,9.50
2022-12-17T16:37:42.248Z,9.90
2022-12-17T16:40:13.041Z,8.17
2022-12-17T16:42:41.085Z,9.87
2022-12-17T16:45:10.074Z,10.30
2022-12-17T16:47:38.261Z,12.52
2022-12-17T16:50:07.012Z,11.13
2022-12-17T16:52:35.290Z,10.20
2022-12-17T16:55:03.364Z,9.13
2022-12-17T16:57:32.907Z,9.10
2022-12-17T17:00:00.990Z,10.07
2022-12-17T17:02:29.170Z,10.17
2022-12-17T17:04:57.512Z,10.20
2022-12-17T17:07:25.612Z,11.23
2022-12-17T17:09:53.728Z,12.97
2022-12-17T17:12:21.907Z,13.47
2022-12-17T17:14:51.231Z,13.70
2022-12-17T17:17:19.342Z,14.77
2022-12-17T17:20:08.050Z,15.80
2022-12-17T17:22:36.114Z,16.23
2022-12-17T17:25:05.040Z,15.87
2022-12-17T17:27:33.084Z,13.20
2022-12-17T17:30:04.122Z,14.10
2022-12-17T17:32:32.683Z,15.27
2022-12-17T17:35:00.658Z,12.67
2022-12-17T17:37:29.034Z,11.87
2022-12-17T17:39:57.004Z,11.40
2022-12-17T17:42:25.031Z,12.10
2022-12-17T17:44:53.013Z,11.03
2022-12-17T17:47:22.381Z,10.60
2022-12-17T17:49:50.345Z,12.07
2022-12-17T17:52:18.483Z,10.50
2022-12-17T17:54:48.247Z,13.53
2022-12-17T17:57:16.345Z,11.83
2022-12-17T17:59:44.314Z,14.23
2022-12-17T18:02:12.997Z,11.37
2022-12-17T18:04:42.783Z,12.00
2022-12-17T18:07:27.321Z,9.47
2022-12-17T18:09:56.006Z,9.67
2022-12-17T18:12:41.981Z,8.83
2022-12-17T18:15:15.891Z,10.07
2022-12-17T18:17:46.091Z,9.23
2022-12-17T18:20:15.957Z,9.90
2022-12-17T18:22:45.708Z,9.90
2022-12-17T18:25:13.795Z,10.30
2022-12-17T18:27:42.433Z,8.23
2022-12-17T18:30:11.248Z,9.90
2022-12-17T18:32:39.321Z,12.10
2022-12-17T18:35:08.380Z,10.50
2022-12-17T18:37:38.198Z,10.33
2022-12-17T18:40:07.938Z,10.63
2022-12-17T18:42:53.599Z,10.67
2022-12-17T18:45:22.845Z,11.80
2022-12-17T18:47:51.939Z,9.93
2022-12-17T18:50:20.110Z,10.43
2022-12-17T18:52:49.503Z,10.63
2022-12-17T18:55:17.649Z,11.63
2022-12-17T18:57:45.706Z,11.17
2022-12-17T19:00:15.662Z,11.67
2022-12-17T19:02:44.187Z,11.53
2022-12-17T19:05:12.440Z,12.13
2022-12-17T19:07:40.520Z,11.90
2022-12-17T19:10:10.943Z,10.70
2022-12-17T19:12:39.055Z,12.23
2022-12-17T19:15:08.046Z,13.10
2022-12-17T19:17:36.171Z,11.90
2022-12-17T19:20:04.322Z,15.10
2022-12-17T19:22:32.370Z,14.83
2022-12-17T19:25:00.361Z,14.60
2022-12-17T19:27:30.116Z,13.93
2022-12-17T19:29:58.126Z,16.57
2022-12-17T19:32:26.262Z,15.67
2022-12-17T19:34:54.304Z,15.03
2022-12-17T19:37:22.331Z,15.47
2022-12-17T19:39:50.324Z,14.57
2022-12-17T19:42:25.397Z,13.77
2022-12-17T19:44:55.462Z,13.30
2022-12-17T19:47:24.132Z,14.60
2022-12-17T19:49:52.209Z,16.43
2022-12-17T19:52:20.309Z,14.83
2022-12-17T19:54:50.457Z,13.70
2022-12-17T19:57:18.484Z,16.10
2022-12-17T19:59:46.519Z,13.57
2022-12-17T20:02:17.265Z,15.20
2022-12-17T20:04:45.519Z,15.77
2022-12-17T20:07:13.604Z,15.27
2022-12-17T20:09:44.039Z,16.17
2022-12-17T20:12:12.449Z,17.57
2022-12-17T20:14:40.626Z,17.80
2022-12-17T20:17:08.675Z,15.93
2022-12-17T20:19:38.621Z,15.43
2022-12-17T20:22:07.210Z,14.40
2022-12-17T20:24:37.096Z,17.90
2022-12-17T20:27:05.701Z,18.83
2022-12-17T20:29:33.782Z,19.10
2022-12-17T20:32:03.273Z,17.00
2022-12-17T20:34:32.248Z,16.97
2022-12-17T20:37:01.628Z,17.20
2022-12-17T20:39:29.869Z,15.30
2022-12-17T20:41:58.354Z,16.87
2022-12-17T20:44:26.670Z,16.07
2022-12-17T20:46:54.783Z,15.63
2022-12-17T20:49:22.848Z,16.07
2022-12-17T20:51:50.911Z,14.40
2022-12-17T20:54:20.277Z,14.47
2022-12-17T20:56:48.486Z,13.43
2022-12-17T20:59:18.563Z,13.30
2022-12-17T21:01:52.833Z,12.60
2022-12-17T21:04:23.951Z,13.67
2022-12-17T21:06:52.051Z,12.97
2022-12-17T21:09:22.656Z,12.27
2022-12-17T21:11:50.809Z,11.77
2022-12-17T21:14:19.720Z,14.10
2022-12-17T21:16:49.007Z,12.87
2022-12-17T21:19:20.327Z,15.23
2022-12-17T21:21:48.914Z,14.40
2022-12-17T21:24:17.163Z,13.37
2022-12-17T21:26:47.960Z,12.83
2022-12-17T21:29:16.990Z,12.57
2022-12-17T21:31:46.666Z,12.07
2022-12-17T21:34:16.200Z,12.70
2022-12-17T21:36:44.538Z,12.33
2022-12-17T21:39:13.973Z,13.67
2022-12-17T21:42:04.453Z,12.97
2022-12-17T21:44:33.838Z,12.87
2022-12-17T21:47:02.118Z,13.00
2022-12-17T21:49:30.187Z,11.37
2022-12-17T21:51:59.925Z,14.77
2022-12-17T21:54:28.134Z,13.60
2022-12-17T21:56:56.390Z,13.97
2022-12-17T21:59:24.454Z,14.40
2022-12-17T22:01:57.041Z,15.97
2022-12-17T22:04:26.343Z,16.27
2022-12-17T22:07:02.310Z,16.33
2022-12-17T22:10:06.027Z,17.20
2022-12-17T22:12:47.260Z,16.97
2022-12-17T22:15:15.266Z,15.87
2022-12-17T22:17:45.130Z,19.07
2022-12-17T22:20:16.122Z,17.83
2022-12-17T22:22:45.198Z,17.00
2022-12-17T22:25:13.967Z,15.60
2022-12-17T22:27:42.377Z,14.37
2022-12-17T22:30:32.756Z,13.70
2022-12-17T22:33:07.701Z,11.90
2022-12-17T22:36:41.917Z,12.83
2022-12-17T22:42:25.466Z,13.47
2022-12-17T22:44:45.957Z,13.10
2022-12-17T22:44:51.305Z,12.47
2022-12-17T22:47:20.879Z,12.90
2022-12-17T22:49:50.291Z,12.30
2022-12-17T22:52:19.921Z,12.23
2022-12-17T22:54:48.638Z,12.40
2022-12-17T22:57:36.660Z,11.43
2022-12-17T23:00:10.668Z,11.80
2022-12-17T23:02:38.811Z,11.10
2022-12-17T23:05:09.132Z,10.87
2022-12-17T23:07:37.232Z,10.33
2022-12-17T23:10:05.966Z,10.80
2022-12-17T23:12:52.346Z,11.30
2022-12-17T23:15:22.925Z,10.80
2022-12-17T23:17:51.187Z,11.47
2022-12-17T23:20:21.372Z,10.43
2022-12-17T23:22:49.573Z,12.63
2022-12-17T23:25:18.464Z,12.23
2022-12-17T23:27:47.179Z,13.30
2022-12-17T23:30:16.594Z,12.73
2022-12-17T23:32:45.677Z,12.77
2022-12-17T23:35:14.448Z,13.30
2022-12-17T23:37:43.937Z,15.03
2022-12-17T23:40:13.319Z,12.63
2022-12-17T23:42:41.333Z,13.07
2022-12-17T23:45:11.362Z,13.17
2022-12-17T23:47:40.251Z,13.03
2022-12-17T23:50:10.805Z,12.20
2022-12-17T23:52:39.459Z,12.27
2022-12-17T23:55:11.375Z,12.67
2022-12-17T23:57:39.548Z,11.40
